sensor_id;sensor_type;location;lat;lon;timestamp;temperature;humidity
1716;DHT22;855;48.824;9.220;2022-08-03T00:02:11;22.40;80.00
1716;DHT22;855;48.824;9.220;2022-08-03T00:04:38;22.40;79.90
1716;DHT22;855;48.824;9.220;2022-08-03T00:07:04;22.40;80.10
1716;DHT22;855;48.824;9.220;2022-08-03T00:09:31;22.30;80.40
1716;DHT22;855;48.824;9.220;2022-08-03T00:12:00;22.30;80.50
1716;DHT22;855;48.824;9.220;2022-08-03T00:14:26;22.30;80.80
1716;DHT22;855;48.824;9.220;2022-08-03T00:16:53;22.30;80.90
1716;DHT22;855;48.824;9.220;2022-08-03T00:19:20;22.20;80.90
1716;DHT22;855;48.824;9.220;2022-08-03T00:21:47;22.10;81.10
1716;DHT22;855;48.824;9.220;2022-08-03T00:24:14;22.10;80.90
1716;DHT22;855;48.824;9.220;2022-08-03T00:26:41;22.10;81.10
1716;DHT22;855;48.824;9.220;2022-08-03T00:29:09;22.20;80.90
1716;DHT22;855;48.824;9.220;2022-08-03T00:31:35;22.20;80.50
1716;DHT22;855;48.824;9.220;2022-08-03T00:34:02;22.30;80.30
1716;DHT22;855;48.824;9.220;2022-08-03T00:36:29;22.20;80.70
1716;DHT22;855;48.824;9.220;2022-08-03T00:38:56;22.10;81.50
1716;DHT22;855;48.824;9.220;2022-08-03T00:41:23;21.90;82.80
1716;DHT22;855;48.824;9.220;2022-08-03T00:43:50;21.70;83.20
1716;DHT22;855;48.824;9.220;2022-08-03T00:46:18;21.60;83.60
1716;DHT22;855;48.824;9.220;2022-08-03T00:48:46;21.60;83.70
1716;DHT22;855;48.824;9.220;2022-08-03T00:51:13;21.60;84.10
1716;DHT22;855;48.824;9.220;2022-08-03T00:53:40;21.50;84.10
1716;DHT22;855;48.824;9.220;2022-08-03T00:56:07;21.60;84.00
1716;DHT22;855;48.824;9.220;2022-08-03T00:58:34;21.60;84.00
1716;DHT22;855;48.824;9.220;2022-08-03T01:01:01;21.60;83.70
1716;DHT22;855;48.824;9.220;2022-08-03T01:03:32;21.70;83.40
1716;DHT22;855;48.824;9.220;2022-08-03T01:06:05;21.60;83.70
1716;DHT22;855;48.824;9.220;2022-08-03T01:08:40;21.50;84.20
1716;DHT22;855;48.824;9.220;2022-08-03T01:11:13;21.50;84.50
1716;DHT22;855;48.824;9.220;2022-08-03T01:13:48;21.50;84.60
1716;DHT22;855;48.824;9.220;2022-08-03T01:16:22;21.50;84.60
1716;DHT22;855;48.824;9.220;2022-08-03T01:18:59;21.40;85.30
1716;DHT22;855;48.824;9.220;2022-08-03T01:21:33;21.30;85.30
1716;DHT22;855;48.824;9.220;2022-08-03T01:24:16;21.30;85.30
1716;DHT22;855;48.824;9.220;2022-08-03T01:26:58;21.30;85.40
1716;DHT22;855;48.824;9.220;2022-08-03T01:30:01;21.20;85.70
1716;DHT22;855;48.824;9.220;2022-08-03T01:32:36;21.30;85.40
1716;DHT22;855;48.824;9.220;2022-08-03T01:35:08;21.30;85.20
1716;DHT22;855;48.824;9.220;2022-08-03T01:37:43;21.40;85.00
1716;DHT22;855;48.824;9.220;2022-08-03T01:40:12;21.50;84.50
1716;DHT22;855;48.824;9.220;2022-08-03T01:42:40;21.50;84.10
1716;DHT22;855;48.824;9.220;2022-08-03T01:45:12;21.40;84.60
1716;DHT22;855;48.824;9.220;2022-08-03T01:47:40;21.30;85.60
1716;DHT22;855;48.824;9.220;2022-08-03T01:50:10;21.20;86.10
1716;DHT22;855;48.824;9.220;2022-08-03T01:52:39;21.20;86.10
1716;DHT22;855;48.824;9.220;2022-08-03T01:55:07;21.10;86.20
1716;DHT22;855;48.824;9.220;2022-08-03T01:57:37;21.10;86.10
1716;DHT22;855;48.824;9.220;2022-08-03T02:00:05;21.10;85.70
1716;DHT22;855;48.824;9.220;2022-08-03T02:02:36;21.10;86.00
1716;DHT22;855;48.824;9.220;2022-08-03T02:05:06;21.20;85.80
1716;DHT22;855;48.824;9.220;2022-08-03T02:07:35;21.20;85.60
1716;DHT22;855;48.824;9.220;2022-08-03T02:10:04;21.20;85.40
1716;DHT22;855;48.824;9.220;2022-08-03T02:12:31;21.30;85.00
1716;DHT22;855;48.824;9.220;2022-08-03T02:15:01;21.30;84.80
1716;DHT22;855;48.824;9.220;2022-08-03T02:17:29;21.20;84.60
1716;DHT22;855;48.824;9.220;2022-08-03T02:19:58;21.10;85.20
1716;DHT22;855;48.824;9.220;2022-08-03T02:22:26;21.00;85.70
1716;DHT22;855;48.824;9.220;2022-08-03T02:24:53;21.00;86.00
1716;DHT22;855;48.824;9.220;2022-08-03T02:27:23;21.00;86.00
1716;DHT22;855;48.824;9.220;2022-08-03T02:29:52;21.00;85.80
1716;DHT22;855;48.824;9.220;2022-08-03T02:32:23;21.00;85.70
1716;DHT22;855;48.824;9.220;2022-08-03T02:34:52;21.00;85.70
1716;DHT22;855;48.824;9.220;2022-08-03T02:37:25;21.10;85.70
1716;DHT22;855;48.824;9.220;2022-08-03T02:39:57;21.10;85.30
1716;DHT22;855;48.824;9.220;2022-08-03T02:42:27;21.20;84.60
1716;DHT22;855;48.824;9.220;2022-08-03T02:44:57;21.20;84.40
1716;DHT22;855;48.824;9.220;2022-08-03T02:47:26;21.20;84.40
1716;DHT22;855;48.824;9.220;2022-08-03T02:49:55;21.20;84.40
1716;DHT22;855;48.824;9.220;2022-08-03T02:52:26;21.20;84.80
1716;DHT22;855;48.824;9.220;2022-08-03T02:54:57;21.20;85.00
1716;DHT22;855;48.824;9.220;2022-08-03T02:57:27;21.20;85.40
1716;DHT22;855;48.824;9.220;2022-08-03T02:59:55;21.10;85.70
1716;DHT22;855;48.824;9.220;2022-08-03T03:02:23;21.10;85.70
1716;DHT22;855;48.824;9.220;2022-08-03T03:04:51;21.10;85.60
1716;DHT22;855;48.824;9.220;2022-08-03T03:07:19;21.10;85.70
1716;DHT22;855;48.824;9.220;2022-08-03T03:09:48;21.20;85.60
1716;DHT22;855;48.824;9.220;2022-08-03T03:12:16;21.20;85.60
1716;DHT22;855;48.824;9.220;2022-08-03T03:14:44;21.20;85.30
1716;DHT22;855;48.824;9.220;2022-08-03T03:17:11;21.20;85.30
1716;DHT22;855;48.824;9.220;2022-08-03T03:19:40;21.20;85.20
1716;DHT22;855;48.824;9.220;2022-08-03T03:22:10;21.10;85.60
1716;DHT22;855;48.824;9.220;2022-08-03T03:24:39;21.10;85.80
1716;DHT22;855;48.824;9.220;2022-08-03T03:27:08;21.10;86.00
1716;DHT22;855;48.824;9.220;2022-08-03T03:29:36;21.00;86.00
1716;DHT22;855;48.824;9.220;2022-08-03T03:32:03;21.10;86.10
1716;DHT22;855;48.824;9.220;2022-08-03T03:34:30;21.10;85.80
1716;DHT22;855;48.824;9.220;2022-08-03T03:36:57;21.10;85.80
1716;DHT22;855;48.824;9.220;2022-08-03T03:39:24;21.10;85.80
1716;DHT22;855;48.824;9.220;2022-08-03T03:41:52;21.10;86.10
1716;DHT22;855;48.824;9.220;2022-08-03T03:44:21;21.10;86.00
1716;DHT22;855;48.824;9.220;2022-08-03T03:46:47;21.10;85.80
1716;DHT22;855;48.824;9.220;2022-08-03T03:49:14;21.10;85.70
1716;DHT22;855;48.824;9.220;2022-08-03T03:51:41;21.20;85.40
1716;DHT22;855;48.824;9.220;2022-08-03T03:54:08;21.20;85.60
1716;DHT22;855;48.824;9.220;2022-08-03T03:56:35;21.20;85.30
1716;DHT22;855;48.824;9.220;2022-08-03T03:59:03;21.20;85.40
1716;DHT22;855;48.824;9.220;2022-08-03T04:01:31;21.20;85.60
1716;DHT22;855;48.824;9.220;2022-08-03T04:03:59;21.20;86.00
1716;DHT22;855;48.824;9.220;2022-08-03T04:06:46;21.10;86.40
1716;DHT22;855;48.824;9.220;2022-08-03T04:09:31;21.10;86.20
1716;DHT22;855;48.824;9.220;2022-08-03T04:12:18;21.10;86.20
1716;DHT22;855;48.824;9.220;2022-08-03T04:14:48;21.20;86.10
1716;DHT22;855;48.824;9.220;2022-08-03T04:17:17;21.20;85.70
1716;DHT22;855;48.824;9.220;2022-08-03T04:19:48;21.20;85.60
1716;DHT22;855;48.824;9.220;2022-08-03T04:22:18;21.20;85.70
1716;DHT22;855;48.824;9.220;2022-08-03T04:24:51;21.10;86.00
1716;DHT22;855;48.824;9.220;2022-08-03T04:27:22;21.20;85.60
1716;DHT22;855;48.824;9.220;2022-08-03T04:29:52;21.20;85.40
1716;DHT22;855;48.824;9.220;2022-08-03T04:32:22;21.30;85.20
1716;DHT22;855;48.824;9.220;2022-08-03T04:34:53;21.30;85.00
1716;DHT22;855;48.824;9.220;2022-08-03T04:37:25;21.30;85.20
1716;DHT22;855;48.824;9.220;2022-08-03T04:39:56;21.30;85.20
1716;DHT22;855;48.824;9.220;2022-08-03T04:42:26;21.30;85.20
1716;DHT22;855;48.824;9.220;2022-08-03T04:44:55;21.30;85.00
1716;DHT22;855;48.824;9.220;2022-08-03T04:47:24;21.40;85.00
1716;DHT22;855;48.824;9.220;2022-08-03T04:49:51;21.40;84.50
1716;DHT22;855;48.824;9.220;2022-08-03T04:52:18;21.40;84.60
1716;DHT22;855;48.824;9.220;2022-08-03T04:54:45;21.40;84.50
1716;DHT22;855;48.824;9.220;2022-08-03T04:57:14;21.70;84.20
1716;DHT22;855;48.824;9.220;2022-08-03T04:59:41;22.00;82.90
1716;DHT22;855;48.824;9.220;2022-08-03T05:02:07;22.50;81.10
1716;DHT22;855;48.824;9.220;2022-08-03T05:04:36;22.80;79.90
1716;DHT22;855;48.824;9.220;2022-08-03T05:07:05;23.10;78.30
1716;DHT22;855;48.824;9.220;2022-08-03T05:09:32;23.40;77.20
1716;DHT22;855;48.824;9.220;2022-08-03T05:12:01;23.60;76.20
1716;DHT22;855;48.824;9.220;2022-08-03T05:14:27;23.70;75.30
1716;DHT22;855;48.824;9.220;2022-08-03T05:16:54;23.80;74.90
1716;DHT22;855;48.824;9.220;2022-08-03T05:19:21;24.00;74.30
1716;DHT22;855;48.824;9.220;2022-08-03T05:21:49;24.00;74.20
1716;DHT22;855;48.824;9.220;2022-08-03T05:24:16;24.20;73.50
1716;DHT22;855;48.824;9.220;2022-08-03T05:26:43;24.40;72.50
1716;DHT22;855;48.824;9.220;2022-08-03T05:29:10;24.60;72.20
1716;DHT22;855;48.824;9.220;2022-08-03T05:31:37;24.80;71.20
1716;DHT22;855;48.824;9.220;2022-08-03T05:34:03;24.90;70.20
1716;DHT22;855;48.824;9.220;2022-08-03T05:36:30;25.10;69.70
1716;DHT22;855;48.824;9.220;2022-08-03T05:38:58;25.30;69.20
1716;DHT22;855;48.824;9.220;2022-08-03T05:41:25;25.40;67.70
1716;DHT22;855;48.824;9.220;2022-08-03T05:43:53;25.40;68.50
1716;DHT22;855;48.824;9.220;2022-08-03T05:46:21;25.40;67.90
1716;DHT22;855;48.824;9.220;2022-08-03T05:48:48;25.50;67.90
1716;DHT22;855;48.824;9.220;2022-08-03T05:51:15;25.40;68.10
1716;DHT22;855;48.824;9.220;2022-08-03T05:53:43;25.70;67.60
1716;DHT22;855;48.824;9.220;2022-08-03T05:56:12;25.80;67.20
1716;DHT22;855;48.824;9.220;2022-08-03T05:58:39;25.90;67.10
1716;DHT22;855;48.824;9.220;2022-08-03T06:01:05;26.10;66.10
1716;DHT22;855;48.824;9.220;2022-08-03T06:03:32;26.20;65.50
1716;DHT22;855;48.824;9.220;2022-08-03T06:05:59;26.10;65.10
1716;DHT22;855;48.824;9.220;2022-08-03T06:08:26;26.00;65.50
1716;DHT22;855;48.824;9.220;2022-08-03T06:10:53;25.90;66.00
1716;DHT22;855;48.824;9.220;2022-08-03T06:13:21;25.80;66.40
1716;DHT22;855;48.824;9.220;2022-08-03T06:15:48;25.80;66.10
1716;DHT22;855;48.824;9.220;2022-08-03T06:18:14;25.80;66.40
1716;DHT22;855;48.824;9.220;2022-08-03T06:20:41;25.90;66.40
1716;DHT22;855;48.824;9.220;2022-08-03T06:23:08;25.80;66.50
1716;DHT22;855;48.824;9.220;2022-08-03T06:25:35;25.90;66.70
1716;DHT22;855;48.824;9.220;2022-08-03T06:28:02;25.90;66.10
1716;DHT22;855;48.824;9.220;2022-08-03T06:30:31;26.00;66.40
1716;DHT22;855;48.824;9.220;2022-08-03T06:32:58;25.90;66.30
1716;DHT22;855;48.824;9.220;2022-08-03T06:35:25;26.00;66.30
1716;DHT22;855;48.824;9.220;2022-08-03T06:37:53;26.10;66.40
1716;DHT22;855;48.824;9.220;2022-08-03T06:40:21;26.40;66.10
1716;DHT22;855;48.824;9.220;2022-08-03T06:42:53;26.40;65.30
1716;DHT22;855;48.824;9.220;2022-08-03T06:45:20;26.40;65.30
1716;DHT22;855;48.824;9.220;2022-08-03T06:48:00;26.40;65.20
1716;DHT22;855;48.824;9.220;2022-08-03T06:50:28;26.60;64.80
1716;DHT22;855;48.824;9.220;2022-08-03T06:52:55;26.80;64.40
1716;DHT22;855;48.824;9.220;2022-08-03T06:55:22;27.00;64.40
1716;DHT22;855;48.824;9.220;2022-08-03T06:57:49;27.30;63.90
1716;DHT22;855;48.824;9.220;2022-08-03T07:00:16;27.60;62.60
1716;DHT22;855;48.824;9.220;2022-08-03T07:02:43;27.60;61.40
1716;DHT22;855;48.824;9.220;2022-08-03T07:05:12;27.70;62.00
1716;DHT22;855;48.824;9.220;2022-08-03T07:07:40;27.70;61.40
1716;DHT22;855;48.824;9.220;2022-08-03T07:10:08;27.70;61.60
1716;DHT22;855;48.824;9.220;2022-08-03T07:12:37;27.80;60.80
1716;DHT22;855;48.824;9.220;2022-08-03T07:15:05;27.90;61.10
1716;DHT22;855;48.824;9.220;2022-08-03T07:17:34;28.00;60.80
1716;DHT22;855;48.824;9.220;2022-08-03T07:20:03;28.20;60.60
1716;DHT22;855;48.824;9.220;2022-08-03T07:22:32;28.30;58.70
1716;DHT22;855;48.824;9.220;2022-08-03T07:24:59;28.50;59.50
1716;DHT22;855;48.824;9.220;2022-08-03T07:27:27;28.60;58.20
1716;DHT22;855;48.824;9.220;2022-08-03T07:29:55;28.70;56.80
1716;DHT22;855;48.824;9.220;2022-08-03T07:32:22;28.60;56.80
1716;DHT22;855;48.824;9.220;2022-08-03T07:34:49;28.70;56.00
1716;DHT22;855;48.824;9.220;2022-08-03T07:37:16;28.80;56.70
1716;DHT22;855;48.824;9.220;2022-08-03T07:39:45;28.80;56.50
1716;DHT22;855;48.824;9.220;2022-08-03T07:42:11;28.90;55.70
1716;DHT22;855;48.824;9.220;2022-08-03T07:44:38;28.90;55.70
1716;DHT22;855;48.824;9.220;2022-08-03T07:47:05;28.80;55.80
1716;DHT22;855;48.824;9.220;2022-08-03T07:49:32;28.90;55.50
1716;DHT22;855;48.824;9.220;2022-08-03T07:51:59;28.90;54.80
1716;DHT22;855;48.824;9.220;2022-08-03T07:54:45;29.00;55.20
1716;DHT22;855;48.824;9.220;2022-08-03T07:57:12;29.20;55.90
1716;DHT22;855;48.824;9.220;2022-08-03T07:59:38;29.30;54.80
1716;DHT22;855;48.824;9.220;2022-08-03T08:02:06;29.50;54.20
1716;DHT22;855;48.824;9.220;2022-08-03T08:04:33;29.70;53.80
1716;DHT22;855;48.824;9.220;2022-08-03T08:06:59;29.70;54.80
1716;DHT22;855;48.824;9.220;2022-08-03T08:09:26;29.80;53.60
1716;DHT22;855;48.824;9.220;2022-08-03T08:11:54;29.70;53.60
1716;DHT22;855;48.824;9.220;2022-08-03T08:14:21;29.70;53.20
1716;DHT22;855;48.824;9.220;2022-08-03T08:16:48;30.00;53.60
1716;DHT22;855;48.824;9.220;2022-08-03T08:19:15;30.20;52.60
1716;DHT22;855;48.824;9.220;2022-08-03T08:21:42;30.40;51.90
1716;DHT22;855;48.824;9.220;2022-08-03T08:24:09;30.50;51.20
1716;DHT22;855;48.824;9.220;2022-08-03T08:26:36;30.50;51.40
1716;DHT22;855;48.824;9.220;2022-08-03T08:29:04;30.40;50.80
1716;DHT22;855;48.824;9.220;2022-08-03T08:31:31;30.40;51.10
1716;DHT22;855;48.824;9.220;2022-08-03T08:33:58;30.40;49.90
1716;DHT22;855;48.824;9.220;2022-08-03T08:36:30;30.50;50.40
1716;DHT22;855;48.824;9.220;2022-08-03T08:38:57;30.70;49.60
1716;DHT22;855;48.824;9.220;2022-08-03T08:41:24;31.00;49.30
1716;DHT22;855;48.824;9.220;2022-08-03T08:43:50;31.20;48.20
1716;DHT22;855;48.824;9.220;2022-08-03T08:46:19;31.30;47.10
1716;DHT22;855;48.824;9.220;2022-08-03T08:48:47;31.40;46.20
1716;DHT22;855;48.824;9.220;2022-08-03T08:51:15;31.50;46.30
1716;DHT22;855;48.824;9.220;2022-08-03T08:53:48;31.60;46.20
1716;DHT22;855;48.824;9.220;2022-08-03T08:56:17;31.70;47.00
1716;DHT22;855;48.824;9.220;2022-08-03T08:58:47;31.80;45.60
1716;DHT22;855;48.824;9.220;2022-08-03T09:01:19;31.70;44.50
1716;DHT22;855;48.824;9.220;2022-08-03T09:03:46;31.80;46.10
1716;DHT22;855;48.824;9.220;2022-08-03T09:06:14;31.80;43.20
1716;DHT22;855;48.824;9.220;2022-08-03T09:08:41;31.80;43.30
1716;DHT22;855;48.824;9.220;2022-08-03T09:11:08;32.00;42.20
1716;DHT22;855;48.824;9.220;2022-08-03T09:13:35;31.90;43.70
1716;DHT22;855;48.824;9.220;2022-08-03T09:16:10;32.00;43.10
1716;DHT22;855;48.824;9.220;2022-08-03T09:18:39;32.30;42.60
1716;DHT22;855;48.824;9.220;2022-08-03T09:21:14;32.40;43.50
1716;DHT22;855;48.824;9.220;2022-08-03T09:23:45;32.60;42.10
1716;DHT22;855;48.824;9.220;2022-08-03T09:26:18;32.60;41.40
1716;DHT22;855;48.824;9.220;2022-08-03T09:28:45;32.60;41.50
1716;DHT22;855;48.824;9.220;2022-08-03T09:31:12;32.80;42.30
1716;DHT22;855;48.824;9.220;2022-08-03T09:33:47;32.90;42.80
1716;DHT22;855;48.824;9.220;2022-08-03T09:36:33;33.00;42.00
1716;DHT22;855;48.824;9.220;2022-08-03T09:39:01;32.80;42.10
1716;DHT22;855;48.824;9.220;2022-08-03T09:41:30;32.90;42.80
1716;DHT22;855;48.824;9.220;2022-08-03T09:43:57;33.00;42.30
1716;DHT22;855;48.824;9.220;2022-08-03T09:46:24;33.00;42.10
1716;DHT22;855;48.824;9.220;2022-08-03T09:49:08;33.00;42.00
1716;DHT22;855;48.824;9.220;2022-08-03T09:51:35;33.10;43.50
1716;DHT22;855;48.824;9.220;2022-08-03T09:54:02;33.30;42.30
1716;DHT22;855;48.824;9.220;2022-08-03T09:56:43;33.50;41.10
1716;DHT22;855;48.824;9.220;2022-08-03T09:59:12;33.60;41.00
1716;DHT22;855;48.824;9.220;2022-08-03T10:01:48;33.70;40.90
1716;DHT22;855;48.824;9.220;2022-08-03T10:04:16;34.00;40.40
1716;DHT22;855;48.824;9.220;2022-08-03T10:06:44;34.10;40.40
1716;DHT22;855;48.824;9.220;2022-08-03T10:09:12;34.30;41.00
1716;DHT22;855;48.824;9.220;2022-08-03T10:11:41;34.40;39.90
1716;DHT22;855;48.824;9.220;2022-08-03T10:14:10;34.40;39.40
1716;DHT22;855;48.824;9.220;2022-08-03T10:16:43;34.00;38.10
1716;DHT22;855;48.824;9.220;2022-08-03T10:19:10;33.80;39.60
1716;DHT22;855;48.824;9.220;2022-08-03T10:21:41;33.50;39.90
1716;DHT22;855;48.824;9.220;2022-08-03T10:24:11;33.70;39.70
1716;DHT22;855;48.824;9.220;2022-08-03T10:26:43;33.80;38.20
1716;DHT22;855;48.824;9.220;2022-08-03T10:29:16;33.90;38.10
1716;DHT22;855;48.824;9.220;2022-08-03T10:31:45;33.80;39.70
1716;DHT22;855;48.824;9.220;2022-08-03T10:34:17;33.80;39.40
1716;DHT22;855;48.824;9.220;2022-08-03T10:36:46;34.10;37.90
1716;DHT22;855;48.824;9.220;2022-08-03T10:39:18;34.40;38.50
1716;DHT22;855;48.824;9.220;2022-08-03T10:41:45;34.50;37.20
1716;DHT22;855;48.824;9.220;2022-08-03T10:44:17;34.60;37.10
1716;DHT22;855;48.824;9.220;2022-08-03T10:46:45;34.80;37.70
1716;DHT22;855;48.824;9.220;2022-08-03T10:49:13;34.90;36.60
1716;DHT22;855;48.824;9.220;2022-08-03T10:51:41;34.90;36.20
1716;DHT22;855;48.824;9.220;2022-08-03T10:54:36;35.00;36.20
1716;DHT22;855;48.824;9.220;2022-08-03T10:57:43;35.00;37.50
1716;DHT22;855;48.824;9.220;2022-08-03T11:00:10;35.10;37.60
1716;DHT22;855;48.824;9.220;2022-08-03T11:03:01;35.10;36.60
1716;DHT22;855;48.824;9.220;2022-08-03T11:05:29;35.10;36.40
1716;DHT22;855;48.824;9.220;2022-08-03T11:08:25;35.20;36.20
1716;DHT22;855;48.824;9.220;2022-08-03T11:10:56;35.10;35.90
1716;DHT22;855;48.824;9.220;2022-08-03T11:13:24;35.10;36.40
1716;DHT22;855;48.824;9.220;2022-08-03T11:15:54;35.00;36.10
1716;DHT22;855;48.824;9.220;2022-08-03T11:18:22;35.20;36.10
1716;DHT22;855;48.824;9.220;2022-08-03T11:20:51;35.20;35.70
1716;DHT22;855;48.824;9.220;2022-08-03T11:23:20;35.20;36.70
1716;DHT22;855;48.824;9.220;2022-08-03T11:26:14;35.20;35.90
1716;DHT22;855;48.824;9.220;2022-08-03T11:28:42;35.10;35.90
1716;DHT22;855;48.824;9.220;2022-08-03T11:34:18;35.30;36.20
1716;DHT22;855;48.824;9.220;2022-08-03T11:37:22;35.70;36.10
1716;DHT22;855;48.824;9.220;2022-08-03T11:39:52;35.80;35.40
1716;DHT22;855;48.824;9.220;2022-08-03T11:42:43;35.90;35.10
1716;DHT22;855;48.824;9.220;2022-08-03T11:45:11;35.90;34.60
1716;DHT22;855;48.824;9.220;2022-08-03T11:47:39;35.40;35.50
1716;DHT22;855;48.824;9.220;2022-08-03T11:50:07;35.40;35.10
1716;DHT22;855;48.824;9.220;2022-08-03T11:52:39;35.50;34.80
1716;DHT22;855;48.824;9.220;2022-08-03T11:55:14;35.40;35.40
1716;DHT22;855;48.824;9.220;2022-08-03T11:57:44;35.40;36.50
1716;DHT22;855;48.824;9.220;2022-08-03T12:00:29;35.40;35.30
1716;DHT22;855;48.824;9.220;2022-08-03T12:03:02;34.90;35.70
1716;DHT22;855;48.824;9.220;2022-08-03T12:05:37;34.20;36.60
1716;DHT22;855;48.824;9.220;2022-08-03T12:08:05;34.10;36.90
1716;DHT22;855;48.824;9.220;2022-08-03T12:10:32;34.20;36.70
1716;DHT22;855;48.824;9.220;2022-08-03T12:13:02;34.40;38.00
1716;DHT22;855;48.824;9.220;2022-08-03T12:15:31;34.60;36.50
1716;DHT22;855;48.824;9.220;2022-08-03T12:18:01;34.40;36.50
1716;DHT22;855;48.824;9.220;2022-08-03T12:20:30;34.50;36.70
1716;DHT22;855;48.824;9.220;2022-08-03T12:23:02;34.70;37.40
1716;DHT22;855;48.824;9.220;2022-08-03T12:25:30;34.80;36.60
1716;DHT22;855;48.824;9.220;2022-08-03T12:28:09;34.80;36.90
1716;DHT22;855;48.824;9.220;2022-08-03T12:30:37;34.90;37.20
1716;DHT22;855;48.824;9.220;2022-08-03T12:33:21;35.30;36.60
1716;DHT22;855;48.824;9.220;2022-08-03T12:36:00;35.30;36.00
1716;DHT22;855;48.824;9.220;2022-08-03T12:38:29;35.40;35.90
1716;DHT22;855;48.824;9.220;2022-08-03T12:40:57;35.20;36.20
1716;DHT22;855;48.824;9.220;2022-08-03T12:43:26;35.10;35.90
1716;DHT22;855;48.824;9.220;2022-08-03T12:46:10;35.10;37.00
1716;DHT22;855;48.824;9.220;2022-08-03T12:49:03;35.30;35.60
1716;DHT22;855;48.824;9.220;2022-08-03T12:51:32;35.50;36.40
1716;DHT22;855;48.824;9.220;2022-08-03T12:54:00;35.70;35.40
1716;DHT22;855;48.824;9.220;2022-08-03T12:56:27;35.80;36.50
1716;DHT22;855;48.824;9.220;2022-08-03T12:58:55;35.80;36.50
1716;DHT22;855;48.824;9.220;2022-08-03T13:01:22;35.80;35.90
1716;DHT22;855;48.824;9.220;2022-08-03T13:03:52;35.80;35.60
1716;DHT22;855;48.824;9.220;2022-08-03T13:06:21;36.00;36.50
1716;DHT22;855;48.824;9.220;2022-08-03T13:08:48;36.20;35.30
1716;DHT22;855;48.824;9.220;2022-08-03T13:11:20;36.20;34.90
1716;DHT22;855;48.824;9.220;2022-08-03T13:13:48;36.20;34.00
1716;DHT22;855;48.824;9.220;2022-08-03T13:16:16;36.00;35.10
1716;DHT22;855;48.824;9.220;2022-08-03T13:18:43;35.80;34.80
1716;DHT22;855;48.824;9.220;2022-08-03T13:21:12;35.70;35.10
1716;DHT22;855;48.824;9.220;2022-08-03T13:23:40;35.70;35.60
1716;DHT22;855;48.824;9.220;2022-08-03T13:26:07;35.60;35.10
1716;DHT22;855;48.824;9.220;2022-08-03T13:28:34;35.60;35.10
1716;DHT22;855;48.824;9.220;2022-08-03T13:31:01;35.40;35.50
1716;DHT22;855;48.824;9.220;2022-08-03T13:33:29;35.30;35.10
1716;DHT22;855;48.824;9.220;2022-08-03T13:35:56;35.50;35.10
1716;DHT22;855;48.824;9.220;2022-08-03T13:38:23;35.60;35.10
1716;DHT22;855;48.824;9.220;2022-08-03T13:40:51;35.40;35.10
1716;DHT22;855;48.824;9.220;2022-08-03T13:43:18;35.50;35.90
1716;DHT22;855;48.824;9.220;2022-08-03T13:45:46;35.50;36.20
1716;DHT22;855;48.824;9.220;2022-08-03T13:48:13;35.60;36.50
1716;DHT22;855;48.824;9.220;2022-08-03T13:50:41;35.70;36.50
1716;DHT22;855;48.824;9.220;2022-08-03T13:53:08;35.90;36.10
1716;DHT22;855;48.824;9.220;2022-08-03T13:55:35;36.00;35.30
1716;DHT22;855;48.824;9.220;2022-08-03T13:58:02;35.90;35.40
1716;DHT22;855;48.824;9.220;2022-08-03T14:00:29;36.00;35.50
1716;DHT22;855;48.824;9.220;2022-08-03T14:02:57;36.00;35.10
1716;DHT22;855;48.824;9.220;2022-08-03T14:05:24;35.90;34.90
1716;DHT22;855;48.824;9.220;2022-08-03T14:07:52;35.90;35.10
1716;DHT22;855;48.824;9.220;2022-08-03T14:10:19;36.10;35.40
1716;DHT22;855;48.824;9.220;2022-08-03T14:12:46;36.20;34.60
1716;DHT22;855;48.824;9.220;2022-08-03T14:15:13;36.40;34.60
1716;DHT22;855;48.824;9.220;2022-08-03T14:17:40;36.50;34.50
1716;DHT22;855;48.824;9.220;2022-08-03T14:20:08;36.70;34.30
1716;DHT22;855;48.824;9.220;2022-08-03T14:22:37;36.80;34.10
1716;DHT22;855;48.824;9.220;2022-08-03T14:25:06;36.40;33.60
1716;DHT22;855;48.824;9.220;2022-08-03T14:27:34;36.10;34.30
1716;DHT22;855;48.824;9.220;2022-08-03T14:30:01;35.90;35.60
1716;DHT22;855;48.824;9.220;2022-08-03T14:32:29;36.10;35.00
1716;DHT22;855;48.824;9.220;2022-08-03T14:34:56;36.20;35.30
1716;DHT22;855;48.824;9.220;2022-08-03T14:37:22;36.40;35.00
1716;DHT22;855;48.824;9.220;2022-08-03T14:39:49;36.50;34.80
1716;DHT22;855;48.824;9.220;2022-08-03T14:42:18;36.60;35.50
1716;DHT22;855;48.824;9.220;2022-08-03T14:44:45;36.70;34.10
1716;DHT22;855;48.824;9.220;2022-08-03T14:47:14;36.60;34.00
1716;DHT22;855;48.824;9.220;2022-08-03T14:49:41;36.80;33.40
1716;DHT22;855;48.824;9.220;2022-08-03T14:52:08;36.80;33.10
1716;DHT22;855;48.824;9.220;2022-08-03T14:54:35;36.80;33.00
1716;DHT22;855;48.824;9.220;2022-08-03T14:57:02;36.90;33.30
1716;DHT22;855;48.824;9.220;2022-08-03T14:59:30;36.90;32.90
1716;DHT22;855;48.824;9.220;2022-08-03T15:01:57;36.80;33.50
1716;DHT22;855;48.824;9.220;2022-08-03T15:04:24;36.70;33.30
1716;DHT22;855;48.824;9.220;2022-08-03T15:06:51;36.30;33.60
1716;DHT22;855;48.824;9.220;2022-08-03T15:09:18;36.20;33.80
1716;DHT22;855;48.824;9.220;2022-08-03T15:11:44;36.20;33.80
1716;DHT22;855;48.824;9.220;2022-08-03T15:14:11;36.30;34.10
1716;DHT22;855;48.824;9.220;2022-08-03T15:16:40;35.90;34.00
1716;DHT22;855;48.824;9.220;2022-08-03T15:19:07;35.60;34.60
1716;DHT22;855;48.824;9.220;2022-08-03T15:21:34;35.50;34.30
1716;DHT22;855;48.824;9.220;2022-08-03T15:24:07;35.80;34.10
1716;DHT22;855;48.824;9.220;2022-08-03T15:26:34;36.00;34.30
1716;DHT22;855;48.824;9.220;2022-08-03T15:29:01;36.10;33.80
1716;DHT22;855;48.824;9.220;2022-08-03T15:31:28;36.30;33.60
1716;DHT22;855;48.824;9.220;2022-08-03T15:33:56;36.40;33.40
1716;DHT22;855;48.824;9.220;2022-08-03T15:36:23;36.30;32.90
1716;DHT22;855;48.824;9.220;2022-08-03T15:38:51;36.10;33.10
1716;DHT22;855;48.824;9.220;2022-08-03T15:41:18;36.00;32.80
1716;DHT22;855;48.824;9.220;2022-08-03T15:43:45;35.50;33.40
1716;DHT22;855;48.824;9.220;2022-08-03T15:46:12;35.40;33.80
1716;DHT22;855;48.824;9.220;2022-08-03T15:48:39;35.50;33.30
1716;DHT22;855;48.824;9.220;2022-08-03T15:51:08;35.50;34.10
1716;DHT22;855;48.824;9.220;2022-08-03T15:53:35;35.50;33.80
1716;DHT22;855;48.824;9.220;2022-08-03T15:56:02;35.60;33.40
1716;DHT22;855;48.824;9.220;2022-08-03T15:58:32;35.50;33.90
1716;DHT22;855;48.824;9.220;2022-08-03T16:00:59;35.50;33.40
1716;DHT22;855;48.824;9.220;2022-08-03T16:03:27;35.40;33.80
1716;DHT22;855;48.824;9.220;2022-08-03T16:05:59;35.30;34.40
1716;DHT22;855;48.824;9.220;2022-08-03T16:08:27;35.40;33.60
1716;DHT22;855;48.824;9.220;2022-08-03T16:10:54;35.40;33.00
1716;DHT22;855;48.824;9.220;2022-08-03T16:13:21;35.50;33.00
1716;DHT22;855;48.824;9.220;2022-08-03T16:15:48;35.60;33.30
1716;DHT22;855;48.824;9.220;2022-08-03T16:18:15;35.60;33.00
1716;DHT22;855;48.824;9.220;2022-08-03T16:20:42;35.70;33.00
1716;DHT22;855;48.824;9.220;2022-08-03T16:23:09;35.70;33.10
1716;DHT22;855;48.824;9.220;2022-08-03T16:25:38;35.80;33.10
1716;DHT22;855;48.824;9.220;2022-08-03T16:28:05;35.90;32.40
1716;DHT22;855;48.824;9.220;2022-08-03T16:30:32;36.00;32.90
1716;DHT22;855;48.824;9.220;2022-08-03T16:32:59;35.80;32.40
1716;DHT22;855;48.824;9.220;2022-08-03T16:35:25;35.60;32.60